Time,TemperatureF,DewpointF,PressureIn,WindDirection,WindDirectionDegrees,WindSpeedMPH,WindSpeedGustMPH,Humidity,HourlyPrecipIn,Conditions,Clouds,dailyrainin,SoftwareType,DateUTC
2013-04-10 00:00:00,41.1,40.3,30.01,East,90,16.0,24.0,97,0.00,,,-99.99,WeatherLink 5.4,2013-04-10 04:00:00,
2013-04-10 00:10:00,41.0,40.2,30.02,East,90,16.0,25.0,97,0.00,,,-99.99,WeatherLink 5.4,2013-04-10 04:10:00,
2013-04-10 00:20:00,40.9,40.1,30.02,East,90,16.0,23.0,97,0.00,,,-99.99,WeatherLink 5.4,2013-04-10 04:20:00,
2013-04-10 00:30:00,40.8,40.0,30.02,East,90,17.0,24.0,97,0.00,,,-99.99,WeatherLink 5.4,2013-04-10 04:30:00,
2013-04-10 00:40:00,40.8,40.0,30.02,East,90,14.0,22.0,97,0.00,,,-99.99,WeatherLink 5.4,2013-04-10 04:40:00,
2013-04-10 00:50:00,40.7,39.9,30.02,East,90,16.0,22.0,97,0.00,,,-99.99,WeatherLink 5.4,2013-04-10 04:50:00,
2013-04-10 01:00:00,40.7,39.9,30.02,East,90,16.0,22.0,97,0.00,,,-99.99,WeatherLink 5.4,2013-04-10 05:00:00,
2013-04-10 01:10:00,40.6,39.8,30.01,East,90,16.0,23.0,97,0.00,,,-99.99,WeatherLink 5.4,2013-04-10 05:10:00,
2013-04-10 01:20:00,40.6,39.8,30.00,East,90,17.0,23.0,97,0.00,,,-99.99,WeatherLink 5.4,2013-04-10 05:20:00,
2013-04-10 01:30:00,40.4,39.6,30.00,East,90,18.0,25.0,97,0.00,,,-99.99,WeatherLink 5.4,2013-04-10 05:30:00,
2013-04-10 01:40:00,40.2,39.4,30.01,East,90,15.0,26.0,97,0.00,,,-99.99,WeatherLink 5.4,2013-04-10 05:40:00,
2013-04-10 01:50:00,40.1,39.3,30.00,East,90,12.0,21.0,97,0.00,,,-99.99,WeatherLink 5.4,2013-04-10 05:50:00,
2013-04-10 02:00:00,40.1,39.3,30.00,East,90,15.0,22.0,97,0.00,,,-99.99,WeatherLink 5.4,2013-04-10 06:00:00,
2013-04-10 02:10:00,40.0,39.2,29.99,East,90,18.0,25.0,97,0.00,,,-99.99,WeatherLink 5.4,2013-04-10 06:10:00,
2013-04-10 02:20:00,39.8,38.8,29.98,East,90,19.0,27.0,96,0.00,,,-99.99,WeatherLink 5.4,2013-04-10 06:20:00,
2013-04-10 02:30:00,39.7,38.7,29.98,East,90,20.0,31.0,96,0.00,,,-99.99,WeatherLink 5.4,2013-04-10 06:30:00,
2013-04-10 02:40:00,39.6,38.6,29.97,East,90,20.0,25.0,96,0.00,,,-99.99,WeatherLink 5.4,2013-04-10 06:40:00,
2013-04-10 02:50:00,39.6,38.6,29.97,East,90,18.0,26.0,96,0.00,,,-99.99,WeatherLink 5.4,2013-04-10 06:50:00,
2013-04-10 03:00:00,39.5,38.5,29.96,East,90,17.0,24.0,96,0.00,,,-99.99,WeatherLink 5.4,2013-04-10 07:00:00,
2013-04-10 03:10:00,39.4,38.4,29.97,East,90,16.0,23.0,96,0.00,,,-99.99,WeatherLink 5.4,2013-04-10 07:10:00,
2013-04-10 03:20:00,39.4,38.4,29.97,East,90,17.0,23.0,96,0.00,,,-99.99,WeatherLink 5.4,2013-04-10 07:20:00,
2013-04-10 03:30:00,39.4,38.4,29.97,East,90,17.0,24.0,96,0.00,,,-99.99,WeatherLink 5.4,2013-04-10 07:30:00,
2013-04-10 03:40:00,39.4,38.4,29.97,East,90,15.0,22.0,96,0.00,,,-99.99,WeatherLink 5.4,2013-04-10 07:40:00,
2013-04-10 03:50:00,39.3,38.3,29.96,East,90,15.0,22.0,96,0.00,,,-99.99,WeatherLink 5.4,2013-04-10 07:50:00,
2013-04-10 04:00:00,39.3,38.3,29.95,East,90,17.0,23.0,96,0.00,,,-99.99,WeatherLink 5.4,2013-04-10 08:00:00,
2013-04-10 04:10:00,39.3,38.3,29.95,East,90,16.0,23.0,96,0.00,,,-99.99,WeatherLink 5.4,2013-04-10 08:10:00,
2013-04-10 04:20:00,39.2,38.2,29.95,East,90,17.0,21.0,96,0.00,,,-99.99,WeatherLink 5.4,2013-04-10 08:20:00,
2013-04-10 04:30:00,39.2,38.2,29.96,East,90,12.0,21.0,96,0.00,,,-99.99,WeatherLink 5.4,2013-04-10 08:30:00,
2013-04-10 04:40:00,39.1,38.1,29.97,NE,45,10.0,14.0,96,0.00,,,-99.99,WeatherLink 5.4,2013-04-10 08:40:00,
2013-04-10 04:50:00,39.0,38.0,29.98,NNE,22,9.0,16.0,96,0.00,,,-99.99,WeatherLink 5.4,2013-04-10 08:50:00,
2013-04-10 05:00:00,38.7,37.7,29.98,NNE,22,11.0,19.0,96,0.00,,,-99.99,WeatherLink 5.4,2013-04-10 09:00:00,
2013-04-10 05:10:00,38.6,37.6,30.01,NNE,22,9.0,16.0,96,0.01,,,-99.99,WeatherLink 5.4,2013-04-10 09:10:00,
2013-04-10 05:20:00,38.5,37.5,30.00,NNE,22,12.0,19.0,96,0.01,,,-99.99,WeatherLink 5.4,2013-04-10 09:20:00,
2013-04-10 05:30:00,38.4,37.4,30.00,NE,45,9.0,16.0,96,0.04,,,-99.99,WeatherLink 5.4,2013-04-10 09:30:00,
2013-04-10 05:40:00,38.2,37.2,29.99,NE,45,12.0,21.0,96,0.09,,,-99.99,WeatherLink 5.4,2013-04-10 09:40:00,
2013-04-10 05:50:00,38.1,37.1,29.99,NNE,22,11.0,21.0,96,0.10,,,-99.99,WeatherLink 5.4,2013-04-10 09:50:00,
2013-04-10 06:00:00,38.0,37.0,29.98,East,90,14.0,23.0,96,0.10,,,-99.99,WeatherLink 5.4,2013-04-10 10:00:00,
2013-04-10 06:10:00,37.7,36.7,29.97,East,90,21.0,29.0,96,0.10,,,-99.99,WeatherLink 5.4,2013-04-10 10:10:00,
2013-04-10 06:20:00,37.6,36.6,29.97,East,90,19.0,29.0,96,0.10,,,-99.99,WeatherLink 5.4,2013-04-10 10:20:00,
2013-04-10 06:30:00,37.6,36.6,29.98,East,90,16.0,26.0,96,0.07,,,-99.99,WeatherLink 5.4,2013-04-10 10:30:00,
2013-04-10 06:40:00,37.5,36.5,29.97,East,90,16.0,24.0,96,0.02,,,-99.99,WeatherLink 5.4,2013-04-10 10:40:00,
2013-04-10 06:50:00,37.5,36.5,29.99,East,90,15.0,26.0,96,0.01,,,-99.99,WeatherLink 5.4,2013-04-10 10:50:00,
2013-04-10 07:00:00,37.5,36.5,29.99,ENE,67,13.0,25.0,96,0.01,,,-99.99,WeatherLink 5.4,2013-04-10 11:00:00,
2013-04-10 07:10:00,37.5,36.5,29.98,East,90,16.0,25.0,96,0.00,,,-99.99,WeatherLink 5.4,2013-04-10 11:10:00,
2013-04-10 07:20:00,37.4,36.4,29.98,East,90,17.0,26.0,96,0.00,,,-99.99,WeatherLink 5.4,2013-04-10 11:20:00,
2013-04-10 07:30:00,37.4,36.4,29.97,East,90,20.0,30.0,96,0.01,,,-99.99,WeatherLink 5.4,2013-04-10 11:30:00,
2013-04-10 07:40:00,37.3,36.3,29.96,East,90,21.0,30.0,96,0.01,,,-99.99,WeatherLink 5.4,2013-04-10 11:40:00,
2013-04-10 07:50:00,37.3,36.3,29.95,East,90,23.0,31.0,96,0.01,,,-99.99,WeatherLink 5.4,2013-04-10 11:50:00,
2013-04-10 08:00:00,37.2,36.2,29.95,East,90,22.0,35.0,96,0.01,,,-99.99,WeatherLink 5.4,2013-04-10 12:00:00,
2013-04-10 08:10:00,37.2,36.2,29.95,East,90,24.0,33.0,96,0.01,,,-99.99,WeatherLink 5.4,2013-04-10 12:10:00,
2013-04-10 08:20:00,37.3,36.3,29.95,East,90,21.0,31.0,96,0.01,,,-99.99,WeatherLink 5.4,2013-04-10 12:20:00,
2013-04-10 08:30:00,37.4,36.4,29.94,East,90,23.0,29.0,96,0.00,,,-99.99,WeatherLink 5.4,2013-04-10 12:30:00,
2013-04-10 08:40:00,37.6,36.8,29.95,East,90,24.0,33.0,97,0.00,,,-99.99,WeatherLink 5.4,2013-04-10 12:40:00,
2013-04-10 08:50:00,37.8,37.0,29.98,East,90,19.0,26.0,97,0.00,,,-99.99,WeatherLink 5.4,2013-04-10 12:50:00,
2013-04-10 09:00:00,38.0,37.2,30.04,NNW,337,9.0,18.0,97,0.00,,,-99.99,WeatherLink 5.4,2013-04-10 13:00:00,
2013-04-10 09:10:00,38.2,37.4,30.03,NNW,337,8.0,15.0,97,0.01,,,-99.99,WeatherLink 5.4,2013-04-10 13:10:00,
2013-04-10 09:20:00,38.1,37.3,30.00,NNE,22,10.0,18.0,97,0.02,,,-99.99,WeatherLink 5.4,2013-04-10 13:20:00,
2013-04-10 09:30:00,38.1,37.3,29.99,NNE,22,9.0,16.0,97,0.02,,,-99.99,WeatherLink 5.4,2013-04-10 13:30:00,
2013-04-10 09:40:00,38.1,37.3,29.95,East,90,17.0,24.0,97,0.02,,,-99.99,WeatherLink 5.4,2013-04-10 13:40:00,
2013-04-10 09:50:00,38.0,37.2,29.92,East,90,22.0,34.0,97,0.03,,,-99.99,WeatherLink 5.4,2013-04-10 13:50:00,
2013-04-10 10:00:00,38.0,37.2,29.95,East,90,16.0,26.0,97,0.06,,,-99.99,WeatherLink 5.4,2013-04-10 14:00:00,
2013-04-10 10:10:00,38.1,37.3,30.02,WSW,247,5.0,12.0,97,0.15,,,-99.99,WeatherLink 5.4,2013-04-10 14:10:00,
2013-04-10 10:20:00,38.0,37.2,30.02,WSW,247,5.0,12.0,97,0.18,,,-99.99,WeatherLink 5.4,2013-04-10 14:20:00,
2013-04-10 10:30:00,37.9,37.1,29.98,NE,45,10.0,16.0,97,0.22,,,-99.99,WeatherLink 5.4,2013-04-10 14:30:00,
2013-04-10 10:40:00,37.7,36.9,29.91,East,90,17.0,29.0,97,0.25,,,-99.99,WeatherLink 5.4,2013-04-10 14:40:00,
2013-04-10 10:50:00,37.7,36.9,29.86,East,90,29.0,41.0,97,0.24,,,-99.99,WeatherLink 5.4,2013-04-10 14:50:00,
2013-04-10 11:00:00,37.8,37.0,29.88,East,90,25.0,35.0,97,0.22,,,-99.99,WeatherLink 5.4,2013-04-10 15:00:00,
2013-04-10 11:10:00,38.0,37.2,29.89,East,90,25.0,36.0,97,0.12,,,-99.99,WeatherLink 5.4,2013-04-10 15:10:00,
2013-04-10 11:20:00,38.1,37.3,29.93,East,90,23.0,34.0,97,0.08,,,-99.99,WeatherLink 5.4,2013-04-10 15:20:00,
2013-04-10 11:30:00,38.4,37.6,29.93,East,90,17.0,26.0,97,0.04,,,-99.99,WeatherLink 5.4,2013-04-10 15:30:00,
2013-04-10 11:40:00,38.5,37.7,29.93,East,90,16.0,25.0,97,0.01,,,-99.99,WeatherLink 5.4,2013-04-10 15:40:00,
2013-04-10 11:50:00,38.9,38.1,29.91,East,90,19.0,30.0,97,0.01,,,-99.99,WeatherLink 5.4,2013-04-10 15:50:00,
2013-04-10 12:00:00,39.0,38.2,29.92,East,90,19.0,28.0,97,0.00,,,-99.99,WeatherLink 5.4,2013-04-10 16:00:00,
2013-04-10 12:10:00,39.2,38.4,29.93,East,90,19.0,30.0,97,0.00,,,-99.99,WeatherLink 5.4,2013-04-10 16:10:00,
2013-04-10 12:20:00,39.4,38.6,29.96,East,90,16.0,24.0,97,0.00,,,-99.99,WeatherLink 5.4,2013-04-10 16:20:00,
2013-04-10 12:30:00,39.9,39.1,29.98,East,90,10.0,16.0,97,0.00,,,-99.99,WeatherLink 5.4,2013-04-10 16:30:00,
2013-04-10 12:40:00,40.2,39.4,30.00,NNE,22,4.0,9.0,97,0.00,,,-99.99,WeatherLink 5.4,2013-04-10 16:40:00,
2013-04-10 12:50:00,40.1,39.1,30.00,East,90,7.0,13.0,96,0.00,,,-99.99,WeatherLink 5.4,2013-04-10 16:50:00,
2013-04-10 13:00:00,40.1,39.1,30.00,ENE,67,8.0,14.0,96,0.00,,,-99.99,WeatherLink 5.4,2013-04-10 17:00:00,
2013-04-10 13:10:00,40.3,39.3,29.99,NNE,22,9.0,16.0,96,0.00,,,-99.99,WeatherLink 5.4,2013-04-10 17:10:00,
2013-04-10 13:20:00,40.4,39.4,29.98,NNE,22,8.0,15.0,96,0.00,,,-99.99,WeatherLink 5.4,2013-04-10 17:20:00,
2013-04-10 13:30:00,40.3,39.0,29.95,NNE,22,12.0,24.0,95,0.00,,,-99.99,WeatherLink 5.4,2013-04-10 17:30:00,
2013-04-10 13:40:00,40.3,39.0,29.95,NNE,22,13.0,21.0,95,0.00,,,-99.99,WeatherLink 5.4,2013-04-10 17:40:00,
2013-04-10 13:50:00,40.5,39.2,29.96,NNE,22,13.0,21.0,95,0.00,,,-99.99,WeatherLink 5.4,2013-04-10 17:50:00,
2013-04-10 14:00:00,40.5,39.2,29.99,NNE,22,10.0,21.0,95,0.00,,,-99.99,WeatherLink 5.4,2013-04-10 18:00:00,
2013-04-10 14:10:00,40.3,39.0,29.99,NNE,22,12.0,20.0,95,0.00,,,-99.99,WeatherLink 5.4,2013-04-10 18:10:00,
2013-04-10 14:20:00,40.3,39.0,29.99,NE,45,10.0,19.0,95,0.00,,,-99.99,WeatherLink 5.4,2013-04-10 18:20:00,
2013-04-10 14:30:00,40.3,38.7,29.99,ENE,67,11.0,20.0,94,0.00,,,-99.99,WeatherLink 5.4,2013-04-10 18:30:00,
2013-04-10 14:40:00,40.3,38.7,29.96,East,90,12.0,20.0,94,0.00,,,-99.99,WeatherLink 5.4,2013-04-10 18:40:00,
2013-04-10 14:50:00,40.2,38.6,29.97,East,90,14.0,27.0,94,0.00,,,-99.99,WeatherLink 5.4,2013-04-10 18:50:00,
2013-04-10 15:00:00,40.1,38.5,29.97,East,90,13.0,27.0,94,0.00,,,-99.99,WeatherLink 5.4,2013-04-10 19:00:00,
2013-04-10 15:10:00,40.1,38.5,29.99,ENE,67,12.0,25.0,94,0.00,,,-99.99,WeatherLink 5.4,2013-04-10 19:10:00,
2013-04-10 15:20:00,40.2,38.6,29.98,East,90,16.0,24.0,94,0.00,,,-99.99,WeatherLink 5.4,2013-04-10 19:20:00,
2013-04-10 15:30:00,40.3,38.7,30.00,East,90,15.0,24.0,94,0.00,,,-99.99,WeatherLink 5.4,2013-04-10 19:30:00,
2013-04-10 15:40:00,40.4,38.8,29.99,East,90,15.0,23.0,94,0.00,,,-99.99,WeatherLink 5.4,2013-04-10 19:40:00,
2013-04-10 15:50:00,40.4,38.8,29.99,East,90,17.0,25.0,94,0.00,,,-99.99,WeatherLink 5.4,2013-04-10 19:50:00,
2013-04-10 16:00:00,40.5,38.9,29.98,East,90,12.0,22.0,94,0.00,,,-99.99,WeatherLink 5.4,2013-04-10 20:00:00,
2013-04-10 16:10:00,40.5,38.6,30.03,East,90,11.0,21.0,93,0.00,,,-99.99,WeatherLink 5.4,2013-04-10 20:10:00,
2013-04-10 16:20:00,40.5,38.9,30.03,East,90,12.0,20.0,94,0.00,,,-99.99,WeatherLink 5.4,2013-04-10 20:20:00,
2013-04-10 16:30:00,40.4,38.8,30.03,East,90,12.0,19.0,94,0.00,,,-99.99,WeatherLink 5.4,2013-04-10 20:30:00,
2013-04-10 16:40:00,40.3,38.7,30.04,East,90,9.0,14.0,94,0.00,,,-99.99,WeatherLink 5.4,2013-04-10 20:40:00,
2013-04-10 16:50:00,40.1,38.8,30.03,NNE,22,8.0,14.0,95,0.00,,,-99.99,WeatherLink 5.4,2013-04-10 20:50:00,
2013-04-10 17:00:00,39.9,38.6,30.01,NE,45,9.0,18.0,95,0.00,,,-99.99,WeatherLink 5.4,2013-04-10 21:00:00,
2013-04-10 17:10:00,39.7,38.4,29.97,ENE,67,14.0,26.0,95,0.00,,,-99.99,WeatherLink 5.4,2013-04-10 21:10:00,
2013-04-10 17:20:00,39.4,38.4,29.93,NNE,22,15.0,27.0,96,0.00,,,-99.99,WeatherLink 5.4,2013-04-10 21:20:00,
2013-04-10 17:30:00,39.2,38.2,29.93,NE,45,19.0,32.0,96,0.00,,,-99.99,WeatherLink 5.4,2013-04-10 21:30:00,
2013-04-10 17:40:00,39.4,38.4,29.96,East,90,16.0,29.0,96,0.00,,,-99.99,WeatherLink 5.4,2013-04-10 21:40:00,
2013-04-10 17:50:00,39.6,38.6,30.00,East,90,20.0,32.0,96,0.00,,,-99.99,WeatherLink 5.4,2013-04-10 21:50:00,
2013-04-10 18:00:00,39.7,38.4,30.00,East,90,15.0,27.0,95,0.00,,,-99.99,WeatherLink 5.4,2013-04-10 22:00:00,
2013-04-10 18:10:00,39.7,38.4,30.01,East,90,16.0,25.0,95,0.00,,,-99.99,WeatherLink 5.4,2013-04-10 22:10:00,
2013-04-10 18:20:00,39.7,38.1,30.00,East,90,18.0,26.0,94,0.00,,,-99.99,WeatherLink 5.4,2013-04-10 22:20:00,
2013-04-10 18:30:00,39.8,38.2,30.01,East,90,16.0,22.0,94,0.00,,,-99.99,WeatherLink 5.4,2013-04-10 22:30:00,
2013-04-10 18:40:00,39.9,38.0,30.02,East,90,15.0,24.0,93,0.00,,,-99.99,WeatherLink 5.4,2013-04-10 22:40:00,
2013-04-10 18:50:00,39.9,38.0,30.02,East,90,13.0,21.0,93,0.00,,,-99.99,WeatherLink 5.4,2013-04-10 22:50:00,
2013-04-10 19:00:00,39.9,38.0,30.00,East,90,15.0,23.0,93,0.00,,,-99.99,WeatherLink 5.4,2013-04-10 23:00:00,
2013-04-10 19:10:00,39.9,37.8,30.00,East,90,17.0,25.0,92,0.00,,,-99.99,WeatherLink 5.4,2013-04-10 23:10:00,
2013-04-10 19:20:00,39.9,37.8,30.00,East,90,17.0,27.0,92,0.00,,,-99.99,WeatherLink 5.4,2013-04-10 23:20:00,
2013-04-10 19:30:00,39.8,37.7,30.00,East,90,15.0,23.0,92,0.00,,,-99.99,WeatherLink 5.4,2013-04-10 23:30:00,
2013-04-10 19:40:00,39.7,37.6,29.99,East,90,17.0,30.0,92,0.00,,,-99.99,WeatherLink 5.4,2013-04-10 23:40:00,
2013-04-10 19:50:00,39.6,37.2,29.98,East,90,19.0,27.0,91,0.00,,,-99.99,WeatherLink 5.4,2013-04-10 23:50:00,
2013-04-10 20:00:00,39.5,37.1,29.97,East,90,20.0,29.0,91,0.00,,,-99.99,WeatherLink 5.4,2013-04-11 00:00:00,
2013-04-10 20:10:00,39.3,36.9,29.98,East,90,17.0,24.0,91,0.00,,,-99.99,WeatherLink 5.4,2013-04-11 00:10:00,
2013-04-10 20:20:00,39.2,36.5,29.98,East,90,21.0,31.0,90,0.00,,,-99.99,WeatherLink 5.4,2013-04-11 00:20:00,
2013-04-10 20:30:00,39.1,36.1,29.97,East,90,23.0,33.0,89,0.00,,,-99.99,WeatherLink 5.4,2013-04-11 00:30:00,
2013-04-10 20:40:00,39.0,36.0,29.97,East,90,21.0,32.0,89,0.00,,,-99.99,WeatherLink 5.4,2013-04-11 00:40:00,
2013-04-10 20:50:00,38.8,35.6,29.97,East,90,23.0,34.0,88,0.00,,,-99.99,WeatherLink 5.4,2013-04-11 00:50:00,
2013-04-10 21:00:00,38.6,35.6,29.97,East,90,22.0,31.0,89,0.00,,,-99.99,WeatherLink 5.4,2013-04-11 01:00:00,
2013-04-10 21:10:00,38.5,35.5,29.97,East,90,21.0,32.0,89,0.00,,,-99.99,WeatherLink 5.4,2013-04-11 01:10:00,
2013-04-10 21:20:00,38.3,35.3,29.96,East,90,21.0,31.0,89,0.00,,,-99.99,WeatherLink 5.4,2013-04-11 01:20:00,
2013-04-10 21:30:00,38.2,35.2,29.96,East,90,25.0,35.0,89,0.00,,,-99.99,WeatherLink 5.4,2013-04-11 01:30:00,
2013-04-10 21:40:00,38.1,35.1,29.96,East,90,23.0,36.0,89,0.00,,,-99.99,WeatherLink 5.4,2013-04-11 01:40:00,
2013-04-10 21:50:00,38.0,35.0,29.98,East,90,22.0,33.0,89,0.00,,,-99.99,WeatherLink 5.4,2013-04-11 01:50:00,
2013-04-10 22:00:00,37.9,34.9,29.97,East,90,23.0,32.0,89,0.00,,,-99.99,WeatherLink 5.4,2013-04-11 02:00:00,
2013-04-10 22:10:00,37.7,34.8,29.98,East,90,21.0,29.0,89,0.00,,,-99.99,WeatherLink 5.4,2013-04-11 02:10:00,
2013-04-10 22:20:00,37.6,34.9,29.98,East,90,21.0,33.0,90,0.00,,,-99.99,WeatherLink 5.4,2013-04-11 02:20:00,
2013-04-10 22:30:00,37.4,34.5,29.98,East,90,20.0,32.0,89,0.00,,,-99.99,WeatherLink 5.4,2013-04-11 02:30:00,
2013-04-10 22:40:00,37.2,34.3,29.99,East,90,24.0,34.0,89,0.00,,,-99.99,WeatherLink 5.4,2013-04-11 02:40:00,
2013-04-10 22:50:00,37.1,34.4,29.99,East,90,23.0,34.0,90,0.00,,,-99.99,WeatherLink 5.4,2013-04-11 02:50:00,
2013-04-10 23:00:00,37.0,34.3,29.97,East,90,22.0,31.0,90,0.00,,,-99.99,WeatherLink 5.4,2013-04-11 03:00:00,
2013-04-10 23:10:00,36.8,34.1,29.97,East,90,21.0,29.0,90,0.00,,,-99.99,WeatherLink 5.4,2013-04-11 03:10:00,
2013-04-10 23:20:00,36.7,33.8,29.98,East,90,18.0,28.0,89,0.00,,,-99.99,WeatherLink 5.4,2013-04-11 03:20:00,
2013-04-10 23:30:00,36.6,33.7,29.98,East,90,20.0,30.0,89,0.00,,,-99.99,WeatherLink 5.4,2013-04-11 03:30:00,
2013-04-10 23:40:00,36.5,33.6,29.99,East,90,17.0,27.0,89,0.00,,,-99.99,WeatherLink 5.4,2013-04-11 03:40:00,
2013-04-10 23:50:00,36.5,33.6,29.98,East,90,18.0,29.0,89,0.00,,,-99.99,WeatherLink 5.4,2013-04-11 03:50:00,